Time;durP1;ratioP1;P1;durP2;ratioP2;P2;SDS_P1;SDS_P2;PMS_P1;PMS_P2;Temp;Humidity;BMP_temperature;BMP_pressure;BME280_temperature;BME280_humidity;BME280_pressure;Samples;Min_cycle;Max_cycle;Signal;HPM_P1;HPM_P2
2022/11/07 00:01:00;;;;;;;16.67;8.65;;;;;;;;;;5074272;28;20105;-63
2022/11/07 00:03:26;;;;;;;15.13;7.88;;;;;;;;;;5091577;28;20052;-63
2022/11/07 00:05:53;;;;;;;16.85;8.65;;;;;;;;;;5092206;28;20042;-62
2022/11/07 00:08:30;;;;;;;15.03;8.00;;;;;;;;;;5074298;28;20020;-64
2022/11/07 00:10:56;;;;;;;15.60;8.20;;;;;;;;;;5092146;28;20103;-61
2022/11/07 00:13:22;;;;;;;15.20;7.88;;;;;;;;;;5073260;28;20071;-64
2022/11/07 00:15:48;;;;;;;14.73;8.50;;;;;;;;;;5092044;28;20464;-62
2022/11/07 00:18:14;;;;;;;15.73;7.65;;;;;;;;;;5074175;28;20025;-63
2022/11/07 00:20:40;;;;;;;15.45;8.50;;;;;;;;;;5092361;28;20466;-63
2022/11/07 00:23:06;;;;;;;15.93;8.02;;;;;;;;;;5072953;28;20044;-63
2022/11/07 00:25:32;;;;;;;15.48;8.32;;;;;;;;;;5092347;28;20381;-62
2022/11/07 00:27:58;;;;;;;15.20;8.98;;;;;;;;;;5091887;28;20090;-63
2022/11/07 00:30:24;;;;;;;15.25;8.18;;;;;;;;;;5092186;28;20448;-63
2022/11/07 00:32:50;;;;;;;15.18;8.43;;;;;;;;;;5091949;28;20024;-63
2022/11/07 00:35:16;;;;;;;15.70;8.55;;;;;;;;;;5073269;28;20117;-62
2022/11/07 00:37:42;;;;;;;14.43;8.00;;;;;;;;;;5092128;28;20032;-62
2022/11/07 00:40:08;;;;;;;15.85;8.52;;;;;;;;;;5074276;28;20028;-63
2022/11/07 00:42:35;;;;;;;15.35;8.20;;;;;;;;;;5074886;28;20028;-61
2022/11/07 00:45:01;;;;;;;16.42;8.10;;;;;;;;;;5092230;28;20028;-61
2022/11/07 00:47:27;;;;;;;14.80;8.30;;;;;;;;;;5093376;28;20024;-61
2022/11/07 00:49:53;;;;;;;20.33;8.80;;;;;;;;;;5096160;28;20019;-62
2022/11/07 00:52:19;;;;;;;14.65;7.72;;;;;;;;;;5095898;28;20024;-63
2022/11/07 00:54:45;;;;;;;15.85;8.68;;;;;;;;;;5076939;28;20400;-63
2022/11/07 00:57:11;;;;;;;16.75;8.38;;;;;;;;;;5077464;28;20024;-60
2022/11/07 00:59:37;;;;;;;15.45;8.13;;;;;;;;;;5095455;28;20119;-62
2022/11/07 01:02:03;;;;;;;15.85;8.65;;;;;;;;;;5077261;28;20054;-63
2022/11/07 01:07:13;;;;;;;18.35;9.15;;;;;;;;;;5095501;28;20119;-64
2022/11/07 01:09:39;;;;;;;14.75;8.07;;;;;;;;;;5095285;28;20028;-62
2022/11/07 01:12:06;;;;;;;14.70;8.48;;;;;;;;;;5095251;28;20144;-62
2022/11/07 01:14:32;;;;;;;16.23;8.43;;;;;;;;;;5094688;28;20024;-64
2022/11/07 01:16:58;;;;;;;15.80;8.63;;;;;;;;;;5077067;28;20032;-64
2022/11/07 01:19:24;;;;;;;16.77;8.20;;;;;;;;;;5095146;28;20118;-64
2022/11/07 01:21:50;;;;;;;16.40;8.27;;;;;;;;;;5076699;28;20048;-63
2022/11/07 01:24:16;;;;;;;15.60;8.15;;;;;;;;;;5094268;28;20032;-64
2022/11/07 01:26:43;;;;;;;15.55;7.90;;;;;;;;;;5094907;28;20468;-63
2022/11/07 01:29:09;;;;;;;15.98;8.13;;;;;;;;;;5100852;28;20072;-59
2022/11/07 01:31:36;;;;;;;18.30;8.55;;;;;;;;;;5096934;28;20031;-64
2022/11/07 01:34:02;;;;;;;15.23;8.32;;;;;;;;;;5114551;28;20024;-62
2022/11/07 01:36:28;;;;;;;15.38;8.13;;;;;;;;;;5096804;28;20026;-63
2022/11/07 01:38:54;;;;;;;15.95;8.52;;;;;;;;;;5096800;28;20027;-63
2022/11/07 01:41:24;;;;;;;15.27;8.35;;;;;;;;;;5090510;28;20467;-62
2022/11/07 01:43:53;;;;;;;14.55;8.00;;;;;;;;;;5075783;28;20032;-61
2022/11/07 01:46:20;;;;;;;14.32;7.88;;;;;;;;;;5094629;28;20065;-64
2022/11/07 01:48:52;;;;;;;16.42;8.27;;;;;;;;;;5076183;28;20024;-62
2022/11/07 01:51:19;;;;;;;18.50;9.00;;;;;;;;;;5094239;28;20509;-63
2022/11/07 01:53:45;;;;;;;15.85;7.80;;;;;;;;;;5075429;28;20436;-62
2022/11/07 01:56:13;;;;;;;16.20;7.93;;;;;;;;;;5094450;28;20092;-64
2022/11/07 01:58:40;;;;;;;;;;;;;;;;;;5094845;28;20373;-64
2022/11/07 02:01:06;;;;;;;16.23;7.80;;;;;;;;;;5094008;28;20375;-62
2022/11/07 02:03:32;;;;;;;14.95;8.07;;;;;;;;;;5093492;28;20047;-62
2022/11/07 02:06:01;;;;;;;15.43;8.30;;;;;;;;;;5094100;28;20467;-65
2022/11/07 02:08:29;;;;;;;15.90;8.68;;;;;;;;;;5094065;28;20395;-60
2022/11/07 02:10:58;;;;;;;16.40;8.20;;;;;;;;;;5094157;28;20425;-64
2022/11/07 02:13:28;;;;;;;17.42;8.40;;;;;;;;;;5093161;28;20024;-62
2022/11/07 02:15:55;;;;;;;20.70;8.90;;;;;;;;;;5094189;28;20035;-63
2022/11/07 02:18:22;;;;;;;16.33;8.55;;;;;;;;;;5093932;28;20456;-59
2022/11/07 02:20:50;;;;;;;16.20;8.05;;;;;;;;;;5075742;28;20024;-62
2022/11/07 02:23:36;;;;;;;20.92;8.20;;;;;;;;;;5092931;28;20562;-63
2022/11/07 02:26:02;;;;;;;15.80;8.02;;;;;;;;;;5093686;28;20388;-63
2022/11/07 02:28:29;;;;;;;16.05;8.60;;;;;;;;;;5093808;28;20427;-63
2022/11/07 02:30:55;;;;;;;16.20;8.35;;;;;;;;;;5075434;28;20028;-64
2022/11/07 02:33:22;;;;;;;18.00;8.77;;;;;;;;;;5092745;28;20131;-64
2022/11/07 02:35:52;;;;;;;20.08;8.00;;;;;;;;;;5075408;28;20031;-61
2022/11/07 02:38:26;;;;;;;16.27;8.05;;;;;;;;;;5093559;28;20031;-64
2022/11/07 02:40:55;;;;;;;15.85;8.30;;;;;;;;;;5093637;28;20036;-61
2022/11/07 02:43:23;;;;;;;14.10;7.57;;;;;;;;;;5092457;28;20456;-67
2022/11/07 02:45:50;;;;;;;14.50;7.80;;;;;;;;;;5093427;28;20016;-61
2022/11/07 02:48:16;;;;;;;14.30;7.53;;;;;;;;;;5093300;28;20027;-64
2022/11/07 02:50:42;;;;;;;15.45;7.97;;;;;;;;;;5075220;28;20020;-65
2022/11/07 02:53:08;;;;;;;13.93;7.90;;;;;;;;;;5074308;28;20027;-64
2022/11/07 02:55:34;;;;;;;16.40;7.80;;;;;;;;;;5075175;28;20028;-62
2022/11/07 02:58:00;;;;;;;13.15;7.65;;;;;;;;;;5093108;28;20024;-62
2022/11/07 03:00:26;;;;;;;14.85;7.90;;;;;;;;;;5075280;28;20019;-63
2022/11/07 03:02:52;;;;;;;14.70;7.70;;;;;;;;;;5093017;28;20028;-63
2022/11/07 03:05:18;;;;;;;14.23;7.80;;;;;;;;;;5092503;28;20019;-63
2022/11/07 03:07:45;;;;;;;15.57;7.95;;;;;;;;;;5075214;28;20552;-64
2022/11/07 03:10:12;;;;;;;15.45;8.25;;;;;;;;;;5093400;28;20024;-64
2022/11/07 03:12:41;;;;;;;15.40;8.07;;;;;;;;;;5092269;28;20024;-64
2022/11/07 03:15:07;;;;;;;16.02;8.25;;;;;;;;;;5092162;28;20077;-63
2022/11/07 03:17:34;;;;;;;16.05;8.25;;;;;;;;;;5092907;28;20035;-61
2022/11/07 03:20:00;;;;;;;16.58;7.85;;;;;;;;;;5092821;28;20081;-64
2022/11/07 03:22:26;;;;;;;13.98;7.57;;;;;;;;;;5092738;28;20679;-63
2022/11/07 03:24:52;;;;;;;15.48;7.82;;;;;;;;;;5073646;28;20031;-62
2022/11/07 03:27:18;;;;;;;15.82;8.25;;;;;;;;;;5074470;28;20024;-64
2022/11/07 03:29:44;;;;;;;15.32;7.90;;;;;;;;;;5092761;28;20020;-61
2022/11/07 03:32:10;;;;;;;15.73;7.95;;;;;;;;;;5074425;28;20020;-61
2022/11/07 03:34:36;;;;;;;16.23;7.88;;;;;;;;;;5073694;28;20027;-61
2022/11/07 03:37:03;;;;;;;14.30;7.85;;;;;;;;;;5092452;28;20028;-62
2022/11/07 03:39:29;;;;;;;16.10;7.65;;;;;;;;;;5074473;28;20031;-64
2022/11/07 03:41:55;;;;;;;16.08;8.30;;;;;;;;;;5092596;28;20024;-64
2022/11/07 03:44:21;;;;;;;15.25;7.90;;;;;;;;;;5091762;28;20103;-59
2022/11/07 03:46:47;;;;;;;18.02;8.55;;;;;;;;;;5092226;28;20539;-59
2022/11/07 03:49:13;;;;;;;19.10;8.25;;;;;;;;;;5074263;28;20058;-65
2022/11/07 03:51:39;;;;;;;16.30;8.43;;;;;;;;;;5074906;28;20017;-63
2022/11/07 03:54:04;;;;;;;16.40;8.48;;;;;;;;;;5092296;28;20475;-63
2022/11/07 03:56:30;;;;;;;17.33;8.10;;;;;;;;;;5075610;28;20020;-63
2022/11/07 03:58:56;;;;;;;17.20;9.30;;;;;;;;;;5075398;28;20032;-62
2022/11/07 04:01:22;;;;;;;15.77;8.32;;;;;;;;;;5074989;28;20024;-64
2022/11/07 04:03:48;;;;;;;15.25;8.75;;;;;;;;;;5092363;28;20028;-64
2022/11/07 04:06:14;;;;;;;15.23;8.40;;;;;;;;;;5074349;28;20016;-65
2022/11/07 04:08:40;;;;;;;15.90;8.57;;;;;;;;;;5092185;28;20710;-60
2022/11/07 04:11:06;;;;;;;16.60;8.73;;;;;;;;;;5090559;28;20103;-60
2022/11/07 04:19:03;;;;;;;17.33;9.10;;;;;;;;;;5092339;28;20043;-63
2022/11/07 04:21:29;;;;;;;15.52;8.70;;;;;;;;;;5073612;28;20043;-62
2022/11/07 04:23:55;;;;;;;19.08;8.77;;;;;;;;;;5076871;28;20142;-61
2022/11/07 04:29:05;;;;;;;16.90;9.13;;;;;;;;;;5095873;28;20022;-63
2022/11/07 04:31:31;;;;;;;15.40;8.63;;;;;;;;;;5095516;28;20052;-61
2022/11/07 04:33:57;;;;;;;16.25;9.25;;;;;;;;;;5077010;28;20093;-61
2022/11/07 04:36:23;;;;;;;17.30;8.82;;;;;;;;;;5095779;28;20472;-61
2022/11/07 04:38:49;;;;;;;17.27;8.68;;;;;;;;;;5077579;28;20110;-63
2022/11/07 04:41:20;;;;;;;18.08;9.52;;;;;;;;;;5077502;28;20020;-67
2022/11/07 04:43:46;;;;;;;16.95;8.73;;;;;;;;;;5076679;28;20027;-63
2022/11/07 04:46:12;;;;;;;22.15;9.65;;;;;;;;;;5087373;28;20024;-65
2022/11/07 04:48:38;;;;;;;17.85;9.75;;;;;;;;;;5075363;28;20021;-62
2022/11/07 04:51:04;;;;;;;18.33;9.45;;;;;;;;;;5075133;28;20017;-63
2022/11/07 04:53:30;;;;;;;17.80;8.60;;;;;;;;;;5074529;28;20020;-62
2022/11/07 04:55:56;;;;;;;21.45;9.55;;;;;;;;;;5075585;28;20618;-64
2022/11/07 04:58:22;;;;;;;16.20;9.02;;;;;;;;;;5075102;28;20055;-62
2022/11/07 05:00:48;;;;;;;16.98;8.43;;;;;;;;;;5075078;28;20099;-62
2022/11/07 05:03:14;;;;;;;17.33;8.57;;;;;;;;;;5074181;28;20025;-63
2022/11/07 05:05:40;;;;;;;16.77;8.68;;;;;;;;;;5057139;28;20450;-61
2022/11/07 05:08:06;;;;;;;17.40;8.80;;;;;;;;;;5074880;28;20020;-62
2022/11/07 05:10:32;;;;;;;16.67;8.70;;;;;;;;;;5074813;28;20060;-61
2022/11/07 05:12:58;;;;;;;18.20;8.63;;;;;;;;;;5087131;28;20024;-63
2022/11/07 05:15:24;;;;;;;20.13;9.93;;;;;;;;;;5114742;28;20016;-62
2022/11/07 05:17:50;;;;;;;18.73;9.35;;;;;;;;;;5115380;28;20495;-63
2022/11/07 05:20:22;;;;;;;16.55;8.93;;;;;;;;;;5096811;28;20034;-63
2022/11/07 05:25:33;;;;;;;16.85;8.75;;;;;;;;;;5093381;28;20035;-68
2022/11/07 05:27:59;;;;;;;16.42;9.40;;;;;;;;;;5093295;28;20024;-65
2022/11/07 05:30:24;;;;;;;20.00;9.25;;;;;;;;;;5093240;28;20020;-66
2022/11/07 05:32:51;;;;;;;19.90;9.00;;;;;;;;;;5093169;28;20390;-66
2022/11/07 05:35:17;;;;;;;20.17;9.40;;;;;;;;;;5091798;28;20047;-66
2022/11/07 05:37:43;;;;;;;17.70;9.77;;;;;;;;;;5075015;28;20016;-66
2022/11/07 05:40:09;;;;;;;18.55;9.05;;;;;;;;;;5093256;28;20024;-65
2022/11/07 05:42:35;;;;;;;15.80;9.05;;;;;;;;;;5092761;28;20020;-66
2022/11/07 05:45:01;;;;;;;16.58;9.55;;;;;;;;;;5092007;28;20039;-65
2022/11/07 05:47:27;;;;;;;16.75;9.52;;;;;;;;;;5092636;28;20115;-66
2022/11/07 05:49:53;;;;;;;18.08;8.80;;;;;;;;;;5074683;28;20416;-66
2022/11/07 05:52:19;;;;;;;17.98;9.32;;;;;;;;;;5092559;28;20081;-65
2022/11/07 05:54:45;;;;;;;22.55;9.10;;;;;;;;;;5091855;28;20028;-65
2022/11/07 05:57:11;;;;;;;18.75;10.00;;;;;;;;;;5071213;28;20040;-66
2022/11/07 05:59:37;;;;;;;17.52;9.30;;;;;;;;;;5089468;28;20070;-66
2022/11/07 06:02:03;;;;;;;20.63;9.30;;;;;;;;;;5074380;28;20635;-66
2022/11/07 06:04:29;;;;;;;20.35;9.40;;;;;;;;;;5092070;28;20048;-66
2022/11/07 06:06:55;;;;;;;17.70;9.00;;;;;;;;;;5074195;28;20486;-66
2022/11/07 06:09:21;;;;;;;20.25;9.05;;;;;;;;;;5092503;28;20028;-65
2022/11/07 06:11:47;;;;;;;15.32;8.80;;;;;;;;;;5092986;28;20016;-66
2022/11/07 06:14:13;;;;;;;16.30;8.50;;;;;;;;;;5091829;28;20070;-66
2022/11/07 06:16:39;;;;;;;19.67;9.23;;;;;;;;;;5074183;28;20028;-66
2022/11/07 06:19:05;;;;;;;16.75;9.00;;;;;;;;;;5092117;28;20027;-65
2022/11/07 06:21:31;;;;;;;17.35;9.43;;;;;;;;;;5092011;28;20144;-66
2022/11/07 06:23:58;;;;;;;18.23;9.70;;;;;;;;;;5091072;28;20484;-66
2022/11/07 06:26:24;;;;;;;18.45;9.50;;;;;;;;;;5092006;28;20028;-64
2022/11/07 06:28:50;;;;;;;19.48;9.15;;;;;;;;;;5074128;28;20066;-65
2022/11/07 06:31:16;;;;;;;19.95;10.15;;;;;;;;;;5092326;28;20024;-65
2022/11/07 06:33:42;;;;;;;18.35;10.05;;;;;;;;;;5072601;28;20060;-65
2022/11/07 06:36:09;;;;;;;18.33;9.40;;;;;;;;;;5092104;28;20024;-65
2022/11/07 06:38:36;;;;;;;15.90;8.97;;;;;;;;;;5091801;28;20363;-64
2022/11/07 06:41:05;;;;;;;17.40;9.95;;;;;;;;;;5091794;28;20491;-65
2022/11/07 06:43:31;;;;;;;19.15;9.77;;;;;;;;;;5091025;28;20046;-65
2022/11/07 06:46:01;;;;;;;16.77;9.35;;;;;;;;;;5090818;28;20100;-66
2022/11/07 06:48:27;;;;;;;16.58;8.90;;;;;;;;;;5091640;28;20095;-64
2022/11/07 06:50:56;;;;;;;22.95;9.23;;;;;;;;;;5073211;28;20081;-65
2022/11/07 06:53:22;;;;;;;15.82;9.15;;;;;;;;;;5090610;28;20478;-65
2022/11/07 06:55:48;;;;;;;20.70;9.52;;;;;;;;;;5091687;28;20036;-64
2022/11/07 06:58:14;;;;;;;19.13;9.30;;;;;;;;;;5091093;28;20084;-65
2022/11/07 07:00:40;;;;;;;18.75;9.10;;;;;;;;;;5073337;28;20028;-65
2022/11/07 07:03:06;;;;;;;17.65;8.70;;;;;;;;;;5090684;28;20024;-64
2022/11/07 07:05:33;;;;;;;17.65;9.38;;;;;;;;;;5080496;28;20480;-65
2022/11/07 07:07:59;;;;;;;18.88;8.45;;;;;;;;;;5071344;28;20089;-63
2022/11/07 07:10:25;;;;;;;16.02;9.32;;;;;;;;;;5053228;28;20116;-64
2022/11/07 07:12:55;;;;;;;20.52;8.45;;;;;;;;;;5074394;28;20017;-65
2022/11/07 07:15:21;;;;;;;20.23;8.70;;;;;;;;;;5075938;28;20059;-64
2022/11/07 07:17:47;;;;;;;17.55;8.77;;;;;;;;;;5077059;28;20025;-64
2022/11/07 07:20:13;;;;;;;17.80;9.20;;;;;;;;;;5068773;28;20024;-64
2022/11/07 07:22:40;;;;;;;20.40;9.73;;;;;;;;;;5071550;28;20024;-64
2022/11/07 07:25:06;;;;;;;17.63;9.07;;;;;;;;;;5078088;28;20388;-64
2022/11/07 07:27:32;;;;;;;19.65;9.20;;;;;;;;;;5074125;28;20106;-64
2022/11/07 07:29:58;;;;;;;15.55;8.30;;;;;;;;;;5070499;28;20119;-64
2022/11/07 07:32:24;;;;;;;16.25;8.18;;;;;;;;;;5070372;28;20051;-64
2022/11/07 07:34:51;;;;;;;17.77;8.90;;;;;;;;;;5069911;28;20020;-65
2022/11/07 07:37:18;;;;;;;19.67;8.68;;;;;;;;;;5070837;28;20025;-65
2022/11/07 07:39:44;;;;;;;19.27;9.23;;;;;;;;;;5070301;28;20024;-65
2022/11/07 07:42:10;;;;;;;16.75;8.70;;;;;;;;;;5070446;28;20021;-65
2022/11/07 07:44:36;;;;;;;20.95;8.75;;;;;;;;;;5069599;28;20496;-64
2022/11/07 07:47:02;;;;;;;18.70;8.82;;;;;;;;;;5070329;28;20032;-66
2022/11/07 07:49:28;;;;;;;18.33;9.00;;;;;;;;;;5070483;28;20025;-65
2022/11/07 07:51:55;;;;;;;19.70;9.07;;;;;;;;;;5070283;28;20021;-66
2022/11/07 07:54:21;;;;;;;19.60;8.20;;;;;;;;;;5051748;28;20507;-70
2022/11/07 07:56:47;;;;;;;16.30;8.45;;;;;;;;;;5070005;28;20388;-65
2022/11/07 07:59:13;;;;;;;19.83;9.13;;;;;;;;;;5052030;28;20086;-66
2022/11/07 08:01:39;;;;;;;18.92;8.88;;;;;;;;;;5069610;28;20027;-64
2022/11/07 08:04:05;;;;;;;19.42;8.68;;;;;;;;;;5051601;28;20033;-66
2022/11/07 08:06:31;;;;;;;18.52;8.70;;;;;;;;;;5070344;28;20097;-65
2022/11/07 08:08:57;;;;;;;18.80;8.68;;;;;;;;;;5070477;28;20017;-66
2022/11/07 08:11:23;;;;;;;18.70;9.00;;;;;;;;;;5070041;28;20024;-66
2022/11/07 08:13:49;;;;;;;18.48;8.88;;;;;;;;;;5078976;28;20028;-65
2022/11/07 08:16:15;;;;;;;16.52;8.65;;;;;;;;;;5089934;28;20071;-65
2022/11/07 08:18:41;;;;;;;17.65;8.98;;;;;;;;;;5089846;28;20028;-65
2022/11/07 08:21:08;;;;;;;19.98;9.88;;;;;;;;;;5089856;28;20095;-63
2022/11/07 08:23:35;;;;;;;20.40;8.95;;;;;;;;;;5089049;28;20039;-65
2022/11/07 08:26:03;;;;;;;18.65;9.40;;;;;;;;;;5090428;28;20038;-64
2022/11/07 08:28:30;;;;;;;18.25;9.07;;;;;;;;;;5090243;28;20050;-64
2022/11/07 08:30:56;;;;;;;25.27;10.13;;;;;;;;;;5073354;28;20206;-64
2022/11/07 08:33:22;;;;;;;22.23;10.40;;;;;;;;;;5090395;28;20487;-63
2022/11/07 08:35:48;;;;;;;19.65;10.27;;;;;;;;;;5072995;28;20077;-65
2022/11/07 08:38:14;;;;;;;17.98;9.50;;;;;;;;;;5072723;28;20020;-64
2022/11/07 08:40:40;;;;;;;21.10;9.43;;;;;;;;;;5075221;28;20038;-64
2022/11/07 08:43:06;;;;;;;26.77;10.45;;;;;;;;;;5076642;28;20422;-63
2022/11/07 08:45:32;;;;;;;18.38;10.02;;;;;;;;;;5075977;28;20119;-63
2022/11/07 08:47:59;;;;;;;17.88;9.90;;;;;;;;;;5093533;28;20069;-64
2022/11/07 08:50:25;;;;;;;20.38;9.73;;;;;;;;;;5085907;28;20036;-61
2022/11/07 08:52:51;;;;;;;16.83;9.10;;;;;;;;;;5063540;28;20021;-61
2022/11/07 08:55:17;;;;;;;18.15;9.30;;;;;;;;;;5081107;28;20042;-61
2022/11/07 08:57:43;;;;;;;19.33;10.25;;;;;;;;;;5083205;28;20094;-62
2022/11/07 09:00:13;;;;;;;19.05;9.90;;;;;;;;;;5080989;28;20071;-67
2022/11/07 09:02:39;;;;;;;16.58;8.73;;;;;;;;;;5088343;28;20032;-63
2022/11/07 09:05:05;;;;;;;17.73;9.73;;;;;;;;;;5074052;28;20048;-63
2022/11/07 09:07:31;;;;;;;22.15;9.85;;;;;;;;;;5090651;28;20027;-65
2022/11/07 09:09:57;;;;;;;19.70;10.18;;;;;;;;;;5092245;28;20020;-65
2022/11/07 09:12:24;;;;;;;23.02;10.38;;;;;;;;;;5075965;28;20031;-65
2022/11/07 09:14:50;;;;;;;17.73;9.52;;;;;;;;;;5092945;28;20024;-65
2022/11/07 09:17:16;;;;;;;21.55;9.73;;;;;;;;;;5093611;28;20099;-65
2022/11/07 09:19:42;;;;;;;17.75;9.43;;;;;;;;;;5093331;28;20051;-65
2022/11/07 09:22:08;;;;;;;18.42;9.48;;;;;;;;;;5083819;28;20392;-64
2022/11/07 09:24:34;;;;;;;19.65;9.75;;;;;;;;;;5082837;28;20448;-64
2022/11/07 09:27:00;;;;;;;17.80;9.80;;;;;;;;;;5093316;28;20544;-66
2022/11/07 09:29:26;;;;;;;20.45;9.45;;;;;;;;;;5082967;28;20032;-64
2022/11/07 09:31:52;;;;;;;18.42;9.85;;;;;;;;;;5078285;28;20103;-66
2022/11/07 09:34:18;;;;;;;17.85;9.30;;;;;;;;;;5063951;28;20024;-65
2022/11/07 09:36:44;;;;;;;16.08;8.95;;;;;;;;;;5082525;28;20024;-66
2022/11/07 09:39:10;;;;;;;23.35;10.05;;;;;;;;;;5080994;28;20391;-66
2022/11/07 09:41:39;;;;;;;23.55;10.13;;;;;;;;;;5075062;28;20106;-65
2022/11/07 09:44:21;;;;;;;20.25;10.52;;;;;;;;;;5054106;28;20056;-66
2022/11/07 09:46:53;;;;;;;20.73;10.13;;;;;;;;;;5072467;28;20025;-65
2022/11/07 09:49:19;;;;;;;21.48;9.48;;;;;;;;;;5072333;28;20031;-65
2022/11/07 09:52:03;;;;;;;19.00;9.90;;;;;;;;;;5062473;28;20516;-66
2022/11/07 09:54:32;;;;;;;20.90;10.10;;;;;;;;;;5091233;28;20028;-66
2022/11/07 09:56:59;;;;;;;17.92;9.40;;;;;;;;;;5092330;28;20057;-65
2022/11/07 09:59:29;;;;;;;19.13;9.93;;;;;;;;;;5093159;28;20086;-66
2022/11/07 10:01:55;;;;;;;19.48;9.75;;;;;;;;;;5093293;28;20031;-65
2022/11/07 10:04:22;;;;;;;22.85;10.63;;;;;;;;;;5089373;28;20496;-66
2022/11/07 10:06:54;;;;;;;20.17;9.75;;;;;;;;;;5073130;28;20020;-65
2022/11/07 10:09:43;;;;;;;18.50;9.57;;;;;;;;;;5071860;28;20025;-65
2022/11/07 10:12:22;;;;;;;17.55;9.70;;;;;;;;;;5071511;28;20039;-65
2022/11/07 10:15:07;;;;;;;20.23;9.82;;;;;;;;;;5071267;28;20509;-63
2022/11/07 10:17:38;;;;;;;19.05;10.07;;;;;;;;;;5092143;28;20028;-64
2022/11/07 10:20:17;;;;;;;19.73;10.10;;;;;;;;;;5073804;28;20030;-65
2022/11/07 10:22:57;;;;;;;20.98;9.82;;;;;;;;;;5075466;28;20035;-66
2022/11/07 10:25:39;;;;;;;22.27;10.10;;;;;;;;;;5061424;28;20036;-65
2022/11/07 10:28:11;;;;;;;20.15;9.57;;;;;;;;;;5088154;28;20024;-65
2022/11/07 10:30:37;;;;;;;20.27;10.93;;;;;;;;;;5086695;28;20111;-65
2022/11/07 10:33:19;;;;;;;21.02;9.18;;;;;;;;;;5070865;28;20414;-64
2022/11/07 10:35:49;;;;;;;20.98;10.18;;;;;;;;;;5071641;28;20036;-66
2022/11/07 10:38:26;;;;;;;18.75;9.05;;;;;;;;;;5085524;28;20099;-66
2022/11/07 10:40:52;;;;;;;19.50;9.38;;;;;;;;;;5091466;28;20534;-65
2022/11/07 10:43:38;;;;;;;23.23;9.73;;;;;;;;;;5091168;28;20024;-66
2022/11/07 10:46:16;;;;;;;19.10;10.30;;;;;;;;;;5092822;28;20027;-66
2022/11/07 10:48:52;;;;;;;20.50;9.30;;;;;;;;;;5075243;28;20233;-66
2022/11/07 10:51:18;;;;;;;18.17;9.02;;;;;;;;;;5072343;28;20016;-66
2022/11/07 10:53:44;;;;;;;20.60;10.70;;;;;;;;;;5070219;28;20020;-63
2022/11/07 10:56:12;;;;;;;22.73;10.25;;;;;;;;;;5070874;28;20166;-65
2022/11/07 10:58:45;;;;;;;19.02;9.70;;;;;;;;;;5091076;28;20472;-65
2022/11/07 11:01:11;;;;;;;19.10;9.20;;;;;;;;;;5089738;28;20024;-67
2022/11/07 11:03:40;;;;;;;17.33;9.93;;;;;;;;;;5088839;28;20017;-67
2022/11/07 11:06:05;;;;;;;;;;;;;;;;;;5090981;28;20031;-66
2022/11/07 11:08:36;;;;;;;18.83;9.45;;;;;;;;;;5091909;28;19927;-66
2022/11/07 11:11:12;;;;;;;21.27;10.18;;;;;;;;;;5074158;28;20061;-66
2022/11/07 11:13:38;;;;;;;20.05;9.48;;;;;;;;;;5091084;28;20052;-67
2022/11/07 11:16:20;;;;;;;19.75;10.10;;;;;;;;;;5079461;28;20028;-66
2022/11/07 11:25:29;;;;;;;17.88;9.90;;;;;;;;;;5082831;22;20113;-64
2022/11/07 11:28:05;;;;;;;17.40;9.80;;;;;;;;;;5071515;28;20393;-64
2022/11/07 11:30:32;;;;;;;17.05;10.25;;;;;;;;;;5072676;28;20043;-62
2022/11/07 11:33:11;;;;;;;17.92;9.60;;;;;;;;;;5068198;28;20036;-61
2022/11/07 11:35:37;;;;;;;20.02;10.20;;;;;;;;;;5072324;28;20209;-64
2022/11/07 11:38:07;;;;;;;22.60;11.10;;;;;;;;;;5070324;28;20035;-65
2022/11/07 11:40:37;;;;;;;17.90;10.95;;;;;;;;;;5066370;28;20025;-64
2022/11/07 11:43:11;;;;;;;21.95;12.07;;;;;;;;;;5054328;28;20075;-64
2022/11/07 11:45:57;;;;;;;18.70;12.32;;;;;;;;;;5034197;28;20029;-65
2022/11/07 11:48:38;;;;;;;18.60;12.98;;;;;;;;;;5038093;28;20568;-64
2022/11/07 11:51:12;;;;;;;22.38;12.88;;;;;;;;;;5067115;28;20027;-62
2022/11/07 11:53:38;;;;;;;19.17;13.20;;;;;;;;;;5071337;28;20112;-64
2022/11/07 11:56:07;;;;;;;21.02;12.77;;;;;;;;;;5070415;28;20483;-64
2022/11/07 11:58:33;;;;;;;22.75;13.43;;;;;;;;;;5057589;28;20631;-64
2022/11/07 12:01:05;;;;;;;20.75;12.85;;;;;;;;;;5059740;28;20032;-60
2022/11/07 12:04:06;;;;;;;23.08;12.70;;;;;;;;;;5062979;28;20024;-61
2022/11/07 12:06:44;;;;;;;21.55;11.70;;;;;;;;;;5000796;28;20045;-64
2022/11/07 12:09:31;;;;;;;20.13;11.85;;;;;;;;;;5053052;28;20101;-61
2022/11/07 12:12:03;;;;;;;22.40;12.13;;;;;;;;;;5062982;28;20016;-65
2022/11/07 12:14:38;;;;;;;18.17;10.15;;;;;;;;;;5040493;28;20031;-65
2022/11/07 12:17:07;;;;;;;22.70;10.90;;;;;;;;;;5051883;28;20108;-66
2022/11/07 12:19:39;;;;;;;19.08;10.48;;;;;;;;;;5070217;28;20112;-66
2022/11/07 12:22:14;;;;;;;19.77;10.25;;;;;;;;;;5069745;28;20024;-65
2022/11/07 12:24:40;;;;;;;24.20;10.52;;;;;;;;;;5070442;28;20108;-65
2022/11/07 12:27:15;;;;;;;25.00;10.85;;;;;;;;;;5069288;28;20063;-63
2022/11/07 12:29:53;;;;;;;18.83;10.55;;;;;;;;;;5071038;28;20540;-65
2022/11/07 12:32:38;;;;;;;20.25;10.82;;;;;;;;;;5070424;28;20055;-65
2022/11/07 12:35:04;;;;;;;18.35;10.00;;;;;;;;;;5070425;28;20037;-64
2022/11/07 12:37:36;;;;;;;19.75;10.68;;;;;;;;;;5070226;28;20031;-66
2022/11/07 12:40:11;;;;;;;22.95;10.30;;;;;;;;;;5034918;28;20091;-65
2022/11/07 12:42:56;;;;;;;17.23;10.13;;;;;;;;;;5051272;28;20393;-64
2022/11/07 12:45:33;;;;;;;19.77;10.10;;;;;;;;;;5035164;28;20032;-65
2022/11/07 12:47:59;;;;;;;22.27;11.57;;;;;;;;;;5055469;28;20025;-64
2022/11/07 12:50:25;;;;;;;20.40;10.82;;;;;;;;;;5056008;28;20431;-62
2022/11/07 12:53:00;;;;;;;22.25;11.00;;;;;;;;;;5037447;28;20437;-63
2022/11/07 12:55:32;;;;;;;19.52;10.93;;;;;;;;;;5037550;28;20029;-65
2022/11/07 12:57:59;;;;;;;19.00;10.40;;;;;;;;;;5035582;28;20028;-64
2022/11/07 13:00:26;;;;;;;20.58;10.65;;;;;;;;;;5035633;28;20500;-64
2022/11/07 13:02:58;;;;;;;23.40;10.10;;;;;;;;;;5053358;28;20230;-66
2022/11/07 13:05:33;;;;;;;19.85;9.65;;;;;;;;;;5071815;28;20376;-66
2022/11/07 13:08:04;;;;;;;18.67;10.18;;;;;;;;;;5074253;28;20029;-65
2022/11/07 13:10:30;;;;;;;18.83;9.63;;;;;;;;;;5058421;28;20545;-64
2022/11/07 13:13:01;;;;;;;19.75;10.35;;;;;;;;;;5036540;28;20116;-64
2022/11/07 13:15:28;;;;;;;19.60;10.70;;;;;;;;;;5036331;28;20056;-66
2022/11/07 13:17:54;;;;;;;23.50;11.73;;;;;;;;;;5036454;28;20400;-63
2022/11/07 13:20:20;;;;;;;23.02;10.13;;;;;;;;;;5036303;28;20366;-61
2022/11/07 13:22:47;;;;;;;20.13;10.23;;;;;;;;;;5054041;28;20024;-64
2022/11/07 13:25:16;;;;;;;21.67;9.65;;;;;;;;;;5053077;28;20090;-65
2022/11/07 13:27:43;;;;;;;20.02;10.30;;;;;;;;;;5054311;28;20013;-65
2022/11/07 13:30:12;;;;;;;21.98;9.93;;;;;;;;;;5053857;28;20422;-62
2022/11/07 13:32:41;;;;;;;19.30;8.95;;;;;;;;;;5051015;28;20481;-63
2022/11/07 13:35:09;;;;;;;20.35;9.70;;;;;;;;;;5051444;28;20219;-65
2022/11/07 13:37:36;;;;;;;18.45;9.63;;;;;;;;;;5063703;28;20040;-63
2022/11/07 13:40:21;;;;;;;19.60;9.15;;;;;;;;;;5073964;28;20027;-59
2022/11/07 13:42:48;;;;;;;20.90;9.90;;;;;;;;;;5070983;28;20043;-63
2022/11/07 13:45:20;;;;;;;22.77;9.90;;;;;;;;;;5052959;28;20499;-64
2022/11/07 13:47:47;;;;;;;19.55;10.07;;;;;;;;;;5053916;28;20048;-64
2022/11/07 13:50:18;;;;;;;21.60;11.60;;;;;;;;;;5036246;28;20021;-63
2022/11/07 13:53:02;;;;;;;20.65;10.52;;;;;;;;;;5054330;28;20029;-64
2022/11/07 13:55:48;;;;;;;18.50;9.73;;;;;;;;;;5034863;28;20025;-63
2022/11/07 13:58:16;;;;;;;21.60;11.23;;;;;;;;;;5034134;28;20361;-62
2022/11/07 14:00:42;;;;;;;18.80;9.85;;;;;;;;;;5052105;28;20029;-63
2022/11/07 14:03:22;;;;;;;19.73;9.38;;;;;;;;;;5034044;28;20036;-63
2022/11/07 14:05:48;;;;;;;21.35;9.68;;;;;;;;;;5053122;28;20114;-63
2022/11/07 14:08:14;;;;;;;16.25;9.27;;;;;;;;;;5053002;28;20025;-63
2022/11/07 14:10:47;;;;;;;25.67;10.38;;;;;;;;;;5035503;28;20468;-64
2022/11/07 14:13:19;;;;;;;16.77;9.30;;;;;;;;;;5052894;28;20045;-63
2022/11/07 14:15:54;;;;;;;18.67;9.32;;;;;;;;;;5036023;28;20086;-64
2022/11/07 14:18:21;;;;;;;21.35;9.35;;;;;;;;;;5053697;28;20032;-62
2022/11/07 14:20:54;;;;;;;21.23;9.52;;;;;;;;;;5053902;28;20025;-62
2022/11/07 14:23:25;;;;;;;21.10;9.43;;;;;;;;;;5052973;28;20079;-65
2022/11/07 14:26:16;;;;;;;20.80;9.82;;;;;;;;;;5053469;28;20104;-64
2022/11/07 14:28:42;;;;;;;24.70;10.38;;;;;;;;;;5053752;28;20396;-63
2022/11/07 14:31:15;;;;;;;19.20;8.50;;;;;;;;;;5035404;28;20381;-64
2022/11/07 14:33:47;;;;;;;17.30;8.75;;;;;;;;;;5052187;28;20123;-65
2022/11/07 14:36:13;;;;;;;22.23;9.77;;;;;;;;;;5035176;28;20112;-64
2022/11/07 14:38:44;;;;;;;20.98;9.13;;;;;;;;;;5035047;28;20060;-63
2022/11/07 14:41:12;;;;;;;17.30;9.77;;;;;;;;;;5057958;28;20028;-65
2022/11/07 14:43:38;;;;;;;17.70;9.02;;;;;;;;;;5071137;28;20032;-62
2022/11/07 14:46:06;;;;;;;17.58;9.13;;;;;;;;;;5071791;28;20021;-63
2022/11/07 14:48:32;;;;;;;;;;;;;;;;;;5073471;28;20104;-64
2022/11/07 14:50:59;;;;;;;17.95;8.55;;;;;;;;;;5072998;28;19951;-66
2022/11/07 14:53:34;;;;;;;18.42;8.68;;;;;;;;;;5070974;28;20032;-64
2022/11/07 14:56:05;;;;;;;18.75;9.13;;;;;;;;;;5072387;28;20086;-65